Time;durP1;ratioP1;P1;durP2;ratioP2;P2;SDS_P1;SDS_P2;PMS_P1;PMS_P2;Temp;Humidity;BMP_temperature;BMP_pressure;BME280_temperature;BME280_humidity;BME280_pressure;Samples;Min_cycle;Max_cycle;Signal;HPM_P1;HPM_P2
2022/12/01 00:01:30;;;;;;;16.97;12.03;;;5.40;99.90;;;;;;5098666;28;20433;-81
2022/12/01 00:03:58;;;;;;;18.93;11.80;;;5.50;1.00;;;;;;5103015;27;20547;-80
2022/12/01 00:06:26;;;;;;;18.97;13.73;;;5.50;99.90;;;;;;5099117;28;20960;-81
2022/12/01 00:11:46;;;;;;;19.73;12.70;;;5.40;99.90;;;;;;5101396;27;20911;-81
2022/12/01 00:14:16;;;;;;;20.93;13.03;;;5.40;28.60;;;;;;5095699;28;20510;-81
2022/12/01 00:16:44;;;;;;;16.92;12.38;;;5.40;1.00;;;;;;5096514;28;20473;-80
2022/12/01 00:19:13;;;;;;;19.37;11.50;;;5.40;1.00;;;;;;5105985;27;20290;-81
2022/12/01 00:21:41;;;;;;;18.20;11.68;;;5.30;1.00;;;;;;5098485;28;20469;-81
2022/12/01 00:24:10;;;;;;;17.50;10.80;;;5.40;99.90;;;;;;5101684;27;20209;-81
2022/12/01 00:26:39;;;;;;;16.47;12.67;;;5.40;1.00;;;;;;5099620;28;20445;-81
2022/12/01 00:29:07;;;;;;;19.30;11.47;;;5.40;99.90;;;;;;5099266;27;20480;-80
2022/12/01 00:31:37;;;;;;;17.10;12.33;;;5.40;1.00;;;;;;5094099;27;20483;-81
2022/12/01 00:34:05;;;;;;;16.55;12.38;;;5.40;1.00;;;;;;5094856;28;20445;-79
2022/12/01 00:36:39;;;;;;;21.43;13.07;;;5.40;99.90;;;;;;5100113;28;20290;-80
2022/12/01 00:39:07;;;;;;;18.40;12.13;;;5.40;36.20;;;;;;5100423;28;20473;-79
2022/12/01 00:41:35;;;;;;;21.13;13.23;;;5.40;99.90;;;;;;5098902;27;20948;-80
2022/12/01 00:44:03;;;;;;;19.08;12.15;;;5.20;99.90;;;;;;5094527;28;20192;-80
2022/12/01 00:46:31;;;;;;;18.43;12.13;;;5.40;99.90;;;;;;5093613;28;20655;-79
2022/12/01 00:49:01;;;;;;;19.40;13.30;;;5.30;99.90;;;;;;5101154;27;20525;-79
2022/12/01 00:51:29;;;;;;;21.20;12.30;;;5.40;1.00;;;;;;5098042;28;20552;-80
2022/12/01 00:53:58;;;;;;;19.90;13.33;;;5.40;1.00;;;;;;5094572;28;20465;-80
2022/12/01 00:56:26;;;;;;;22.30;13.37;;;5.30;99.90;;;;;;5095017;27;20598;-79
2022/12/01 00:58:54;;;;;;;19.67;13.17;;;5.30;1.00;;;;;;5097516;28;20494;-80
2022/12/01 01:01:22;;;;;;;21.30;13.83;;;5.40;99.90;;;;;;5096898;27;20450;-79
2022/12/01 01:03:50;;;;;;;21.13;13.13;;;5.30;1.00;;;;;;5102229;27;20451;-81
2022/12/01 01:06:20;;;;;;;18.50;13.17;;;5.30;99.90;;;;;;5093409;27;20891;-81
2022/12/01 01:08:49;;;;;;;22.00;15.10;;;5.30;99.90;;;;;;5093965;28;20484;-80
2022/12/01 01:11:17;;;;;;;19.87;12.90;;;5.40;99.90;;;;;;5094210;28;20548;-81
2022/12/01 01:13:45;;;;;;;22.37;14.40;;;5.30;1.00;;;;;;5099578;28;20458;-81
2022/12/01 01:16:16;;;;;;;19.43;12.90;;;5.30;1.00;;;;;;5097123;28;20474;-81
2022/12/01 01:18:45;;;;;;;24.73;15.80;;;5.30;1.00;;;;;;5099332;27;20515;-82
2022/12/01 01:21:15;;;;;;;20.10;14.53;;;5.30;1.00;;;;;;5096559;28;20462;-82
2022/12/01 01:23:45;;;;;;;19.40;14.10;;;5.20;99.90;;;;;;5098618;28;20463;-81
2022/12/01 01:26:17;;;;;;;19.17;14.17;;;5.30;99.90;;;;;;5098475;28;20223;-81
2022/12/01 01:28:47;;;;;;;18.67;13.60;;;5.30;1.00;;;;;;5095409;28;20470;-80
2022/12/01 01:31:17;;;;;;;21.45;14.70;;;5.30;99.90;;;;;;5089803;28;20456;-81
2022/12/01 01:33:46;;;;;;;24.60;15.77;;;5.20;12.00;;;;;;5094748;28;20207;-81
2022/12/01 01:36:15;;;;;;;19.17;13.68;;;5.30;99.90;;;;;;5098645;28;20861;-80
2022/12/01 01:38:45;;;;;;;21.70;14.90;;;5.30;39.50;;;;;;5098431;27;20702;-80
2022/12/01 01:41:14;;;;;;;23.13;15.93;;;5.30;99.90;;;;;;5094340;27;20823;-80
2022/12/01 01:43:44;;;;;;;19.80;14.90;;;5.30;1.00;;;;;;5099216;28;20450;-80
2022/12/01 01:46:15;;;;;;;24.00;15.83;;;5.30;36.30;;;;;;5097279;27;20676;-79
2022/12/01 01:48:48;;;;;;;21.73;14.20;;;5.20;99.90;;;;;;5094358;28;20592;-80
2022/12/01 01:51:19;;;;;;;25.27;14.90;;;5.20;1.00;;;;;;5095686;28;20860;-78
2022/12/01 01:53:52;;;;;;;19.83;14.25;;;5.20;1.00;;;;;;5096065;28;20549;-79
2022/12/01 01:56:21;;;;;;;23.20;14.70;;;5.20;99.90;;;;;;5096515;27;20266;-80
2022/12/01 01:58:50;;;;;;;26.27;15.90;;;5.10;1.00;;;;;;5094528;28;21011;-81
2022/12/01 02:01:18;;;;;;;23.10;15.20;;;5.30;1.00;;;;;;5093459;28;20295;-80
2022/12/01 02:03:48;;;;;;;23.13;14.63;;;5.30;99.90;;;;;;5097689;27;20285;-80
2022/12/01 02:06:17;;;;;;;22.07;15.67;;;5.30;99.90;;;;;;5096572;28;20452;-78
2022/12/01 02:08:45;;;;;;;18.73;13.53;;;5.30;27.80;;;;;;5091454;28;20614;-79
2022/12/01 02:11:47;;;;;;;21.97;14.87;;;5.20;99.90;;;;;;5098919;28;20530;-80
2022/12/01 02:14:44;;;;;;;22.20;15.50;;;5.20;99.90;;;;;;5102212;27;20536;-79
2022/12/01 02:17:22;;;;;;;20.30;12.87;;;5.30;99.90;;;;;;5097283;27;20496;-79
2022/12/01 02:20:29;;;;;;;21.33;14.50;;;5.30;99.90;;;;;;5100817;27;20451;-79
2022/12/01 02:23:16;;;;;;;22.98;14.90;;;5.20;1.00;;;;;;5096025;28;20462;-80
2022/12/01 02:25:56;;;;;;;20.90;14.00;;;5.20;1.00;;;;;;5097077;28;20215;-81
2022/12/01 02:28:42;;;;;;;21.67;14.90;;;5.20;38.50;;;;;;5087466;28;20710;-81
2022/12/01 02:31:16;;;;;;;16.17;13.17;;;5.20;27.70;;;;;;5097872;28;20516;-81
2022/12/01 02:33:53;;;;;;;24.50;15.07;;;5.20;99.90;;;;;;5092508;28;20471;-82
2022/12/01 02:36:28;;;;;;;21.27;15.33;;;5.20;85.70;;;;;;5094430;28;20965;-81
2022/12/01 02:39:03;;;;;;;20.93;14.87;;;5.20;99.90;;;;;;5095488;28;20498;-80
2022/12/01 02:41:37;;;;;;;21.47;13.90;;;5.20;99.90;;;;;;5098236;28;20461;-80
2022/12/01 02:44:08;;;;;;;25.50;15.10;;;5.10;99.90;;;;;;5096980;28;20452;-81
2022/12/01 02:46:41;;;;;;;18.40;12.02;;;5.10;1.00;;;;;;5094505;28;20456;-81
2022/12/01 02:49:14;;;;;;;19.93;13.97;;;5.20;99.90;;;;;;5093877;28;20257;-81
2022/12/01 02:51:44;;;;;;;19.13;12.90;;;5.20;1.00;;;;;;5096271;28;20465;-81
2022/12/01 02:54:14;;;;;;;19.23;13.80;;;5.20;3.40;;;;;;5093744;28;20446;-81
2022/12/01 02:56:45;;;;;;;19.53;13.87;;;5.30;99.90;;;;;;5102321;27;20196;-80
2022/12/01 02:59:15;;;;;;;21.47;14.00;;;5.20;1.00;;;;;;5092363;28;20548;-80
2022/12/01 03:01:58;;;;;;;21.23;13.47;;;5.10;1.00;;;;;;5091010;28;21002;-81
2022/12/01 03:04:56;;;;;;;18.87;12.70;;;5.10;1.00;;;;;;5093018;28;20586;-81
2022/12/01 03:07:39;;;;;;;18.43;12.53;;;5.00;99.90;;;;;;5047936;28;20469;-81
2022/12/01 03:10:17;;;;;;;18.33;12.30;;;4.90;99.90;;;;;;5095516;28;20918;-81
2022/12/01 03:12:56;;;;;;;21.05;14.23;;;5.00;99.90;;;;;;5100507;28;21550;-81
2022/12/01 03:15:32;;;;;;;17.50;12.60;;;5.00;1.00;;;;;;5091288;28;20207;-80
2022/12/01 03:18:10;;;;;;;22.30;13.90;;;5.10;99.90;;;;;;5090796;28;20487;-80
2022/12/01 03:20:42;;;;;;;20.43;14.77;;;5.00;1.00;;;;;;5097046;27;20449;-81
2022/12/01 03:23:14;;;;;;;20.30;13.57;;;5.00;99.90;;;;;;5096379;28;20589;-80
2022/12/01 03:25:47;;;;;;;22.13;12.87;;;5.00;99.90;;;;;;5092972;28;20513;-81
2022/12/01 03:28:18;;;;;;;18.13;13.80;;;4.90;27.70;;;;;;5096509;28;20460;-81
2022/12/01 03:30:54;;;;;;;18.10;13.50;;;5.00;99.90;;;;;;5092399;27;20449;-81
2022/12/01 03:33:29;;;;;;;16.45;12.65;;;5.00;99.90;;;;;;5099370;28;20206;-80
2022/12/01 03:36:02;;;;;;;18.43;13.60;;;5.00;99.90;;;;;;5098623;27;20194;-81
2022/12/01 03:38:30;;;;;;;18.97;14.30;;;5.00;99.90;;;;;;5095697;28;21062;-80
2022/12/01 03:41:05;;;;;;;22.48;13.38;;;5.10;99.90;;;;;;5094480;28;20449;-80
2022/12/01 03:43:38;;;;;;;17.57;12.30;;;5.00;1.00;;;;;;5097135;28;20259;-81
2022/12/01 03:46:11;;;;;;;22.85;13.65;;;5.00;1.00;;;;;;5095781;28;21175;-80
2022/12/01 03:48:42;;;;;;;23.52;14.48;;;4.90;99.90;;;;;;5099701;28;20220;-80
2022/12/01 03:51:15;;;;;;;22.27;14.20;;;4.90;99.90;;;;;;5096204;28;20281;-81
2022/12/01 03:53:52;;;;;;;18.50;13.52;;;4.90;99.90;;;;;;5092267;28;20282;-80
2022/12/01 03:56:23;;;;;;;19.73;13.40;;;4.90;1.00;;;;;;5097393;28;20198;-80
2022/12/01 03:58:54;;;;;;;16.20;12.83;;;4.90;1.00;;;;;;5096772;28;20493;-81
2022/12/01 04:01:25;;;;;;;18.37;13.00;;;4.90;99.90;;;;;;5093476;28;20458;-80
2022/12/01 04:03:54;;;;;;;21.63;13.30;;;5.00;99.90;;;;;;5092109;28;20463;-80
2022/12/01 04:06:23;;;;;;;20.13;13.23;;;4.90;1.00;;;;;;5094760;28;20530;-80
2022/12/01 04:08:51;;;;;;;19.00;14.23;;;4.90;1.00;;;;;;5095551;28;20226;-80
2022/12/01 04:14:05;;;;;;;19.33;12.87;;;4.90;58.10;;;;;;5084998;28;20219;-81
2022/12/01 04:16:33;;;;;;;19.00;12.93;;;4.90;1.00;;;;;;5096988;28;20446;-80
2022/12/01 04:19:02;;;;;;;26.97;15.97;;;4.90;2.70;;;;;;5094056;28;21043;-80
2022/12/01 04:21:31;;;;;;;19.10;12.27;;;4.90;99.90;;;;;;5092544;28;20453;-81
2022/12/01 04:24:02;;;;;;;18.23;12.73;;;4.90;1.00;;;;;;5087401;28;20457;-80
2022/12/01 04:26:33;;;;;;;21.57;14.40;;;4.90;1.00;;;;;;5097735;28;20572;-80
2022/12/01 04:29:01;;;;;;;18.27;13.30;;;4.90;1.00;;;;;;5091453;28;20502;-80
2022/12/01 04:31:30;;;;;;;20.43;13.50;;;4.90;1.00;;;;;;5098029;28;20453;-80
2022/12/01 04:33:59;;;;;;;19.75;12.80;;;4.90;99.90;;;;;;5092321;28;20457;-79
2022/12/01 04:36:31;;;;;;;20.53;13.77;;;4.80;1.00;;;;;;5098927;28;20198;-79
2022/12/01 04:38:59;;;;;;;20.13;13.13;;;4.80;40.10;;;;;;5097952;28;20476;-79
2022/12/01 04:41:28;;;;;;;17.57;13.17;;;4.80;1.00;;;;;;5097961;27;20876;-81
2022/12/01 04:43:56;;;;;;;20.48;14.57;;;4.80;1.00;;;;;;5096891;28;20449;-79
2022/12/01 04:46:25;;;;;;;20.52;14.55;;;4.80;1.00;;;;;;5094734;28;20204;-79
2022/12/01 04:48:53;;;;;;;21.37;14.23;;;4.80;1.00;;;;;;5099114;27;20219;-80
2022/12/01 04:51:21;;;;;;;17.40;13.63;;;4.80;99.90;;;;;;5101653;27;20513;-75
2022/12/01 04:53:51;;;;;;;21.92;16.48;;;4.70;1.00;;;;;;5089837;28;20438;-77
2022/12/01 04:56:19;;;;;;;23.10;14.80;;;4.80;99.90;;;;;;5099021;27;20298;-75
2022/12/01 04:58:48;;;;;;;25.77;14.13;;;4.90;99.90;;;;;;5098023;28;20490;-77
2022/12/01 05:01:18;;;;;;;21.88;16.50;;;4.90;99.90;;;;;;5089929;27;20946;-79
2022/12/01 05:03:49;;;;;;;19.97;14.30;;;4.70;99.90;;;;;;5096554;28;20210;-79
2022/12/01 05:06:19;;;;;;;21.08;14.38;;;4.90;99.90;;;;;;5098776;27;20460;-80
2022/12/01 05:08:48;;;;;;;20.77;14.03;;;4.80;99.90;;;;;;5098404;27;20212;-79
2022/12/01 05:11:18;;;;;;;18.33;12.50;;;4.80;99.90;;;;;;5094438;28;20441;-80
2022/12/01 05:13:48;;;;;;;21.87;13.83;;;4.80;1.00;;;;;;5099427;27;20511;-80
2022/12/01 05:16:17;;;;;;;19.13;13.43;;;4.80;22.30;;;;;;5104415;27;20463;-79
2022/12/01 05:18:49;;;;;;;21.60;14.45;;;4.80;1.00;;;;;;5100919;27;20214;-80
2022/12/01 05:21:17;;;;;;;17.97;12.10;;;4.70;99.90;;;;;;5101545;27;20235;-80
2022/12/01 05:23:45;;;;;;;19.63;14.18;;;4.70;1.00;;;;;;5096689;28;20450;-81
2022/12/01 05:26:13;;;;;;;20.40;14.00;;;4.80;1.00;;;;;;5100457;28;20200;-80
2022/12/01 05:28:43;;;;;;;22.87;13.73;;;4.80;99.90;;;;;;5092254;28;20473;-81
2022/12/01 05:31:11;;;;;;;20.50;14.27;;;4.70;1.00;;;;;;5099806;27;20552;-81
2022/12/01 05:33:39;;;;;;;24.55;13.98;;;4.90;1.00;;;;;;5094054;27;20963;-80
2022/12/01 05:36:08;;;;;;;22.07;13.90;;;4.70;1.00;;;;;;5093946;27;20192;-79
2022/12/01 05:38:37;;;;;;;20.17;13.02;;;4.80;1.00;;;;;;5095820;27;20512;-79
2022/12/01 05:41:05;;;;;;;20.60;13.63;;;4.80;36.80;;;;;;5098033;28;20284;-79
2022/12/01 05:43:33;;;;;;;22.63;13.68;;;4.70;99.90;;;;;;5092883;28;20506;-79
2022/12/01 05:46:03;;;;;;;16.40;12.32;;;4.80;1.00;;;;;;5096030;28;20224;-78
2022/12/01 05:48:32;;;;;;;17.45;12.98;;;4.80;18.10;;;;;;5094006;28;20242;-79
2022/12/01 05:51:00;;;;;;;21.83;14.23;;;4.80;1.00;;;;;;5094801;28;20200;-78
2022/12/01 05:53:28;;;;;;;21.50;12.82;;;4.80;1.00;;;;;;5092810;28;20441;-80
2022/12/01 05:55:57;;;;;;;20.10;13.35;;;4.80;99.90;;;;;;5090770;28;20694;-78
2022/12/01 05:58:25;;;;;;;23.40;13.48;;;4.80;99.90;;;;;;5094286;28;20226;-79
2022/12/01 06:00:53;;;;;;;16.83;13.03;;;4.70;99.90;;;;;;5094883;28;20196;-78
2022/12/01 06:03:22;;;;;;;18.85;13.80;;;4.80;99.90;;;;;;5084402;28;20481;-80
2022/12/01 06:05:51;;;;;;;20.95;13.77;;;4.80;99.90;;;;;;5096441;28;20204;-79
2022/12/01 06:08:19;;;;;;;23.13;13.87;;;4.70;1.00;;;;;;5097600;28;20848;-80
2022/12/01 06:10:48;;;;;;;16.17;12.35;;;4.60;99.90;;;;;;5086201;28;20453;-79
2022/12/01 06:13:16;;;;;;;18.90;13.23;;;4.70;99.90;;;;;;5086189;28;20577;-80
2022/12/01 06:15:45;;;;;;;20.35;14.43;;;4.70;99.90;;;;;;5093816;27;20212;-79
2022/12/01 06:18:13;;;;;;;20.83;12.90;;;4.70;1.00;;;;;;5091351;28;20229;-79
2022/12/01 06:20:42;;;;;;;19.77;13.00;;;4.70;1.00;;;;;;5090335;28;20226;-80
2022/12/01 06:23:11;;;;;;;17.50;13.17;;;4.70;1.00;;;;;;5095046;27;20196;-78
2022/12/01 06:25:39;;;;;;;19.20;12.52;;;4.80;1.00;;;;;;5093913;28;20465;-79
2022/12/01 06:28:07;;;;;;;19.67;13.50;;;4.70;90.10;;;;;;5094573;28;20222;-81
2022/12/01 06:30:35;;;;;;;21.40;15.52;;;4.60;1.10;;;;;;5089880;27;20431;-79
2022/12/01 06:33:03;;;;;;;18.57;12.70;;;4.50;99.90;;;;;;5099874;27;20196;-79
2022/12/01 06:35:31;;;;;;;21.03;14.30;;;4.70;99.90;;;;;;5097823;28;20595;-79
2022/12/01 06:38:01;;;;;;;19.00;13.33;;;4.80;99.90;;;;;;5099322;28;20465;-78
2022/12/01 06:40:30;;;;;;;21.97;14.87;;;4.70;1.00;;;;;;5091037;28;20469;-80
2022/12/01 06:43:01;;;;;;;22.33;14.55;;;4.70;99.90;;;;;;5090508;28;21187;-78
2022/12/01 06:45:29;;;;;;;21.92;15.05;;;4.70;1.00;;;;;;5101675;28;20453;-80
2022/12/01 06:47:58;;;;;;;20.00;14.67;;;4.70;99.90;;;;;;5099665;28;20248;-80
2022/12/01 06:50:26;;;;;;;22.58;14.60;;;4.70;1.00;;;;;;5096145;28;20503;-78
2022/12/01 06:52:55;;;;;;;22.85;14.75;;;4.70;99.90;;;;;;5098840;28;20291;-79
2022/12/01 06:55:27;;;;;;;17.35;12.38;;;4.60;1.00;;;;;;5088666;28;20250;-80
2022/12/01 06:57:59;;;;;;;20.85;12.80;;;4.60;99.90;;;;;;5088988;28;20231;-80
2022/12/01 07:00:27;;;;;;;22.70;14.02;;;4.80;99.90;;;;;;5096762;28;20641;-80
2022/12/01 07:02:56;;;;;;;23.25;14.40;;;4.70;1.00;;;;;;5092884;28;20275;-80
2022/12/01 07:05:24;;;;;;;22.77;14.88;;;4.80;99.90;;;;;;5094764;28;20246;-80
2022/12/01 07:07:52;;;;;;;20.37;14.27;;;4.80;99.90;;;;;;5095001;28;20699;-79
2022/12/01 07:10:28;;;;;;;19.83;13.80;;;4.70;99.90;;;;;;5092417;28;20526;-81
2022/12/01 07:12:56;;;;;;;22.67;15.18;;;4.70;99.90;;;;;;5090822;28;20200;-80
2022/12/01 07:15:25;;;;;;;20.92;15.10;;;4.60;1.00;;;;;;5098104;28;20222;-80
2022/12/01 07:17:53;;;;;;;20.13;14.10;;;4.70;1.00;;;;;;5095726;28;20241;-81
2022/12/01 07:20:21;;;;;;;23.73;15.43;;;4.70;1.00;;;;;;5089459;28;20469;-80
2022/12/01 07:22:49;;;;;;;23.98;14.77;;;4.70;91.60;;;;;;5094403;28;20219;-79
2022/12/01 07:25:18;;;;;;;23.10;15.85;;;4.80;99.90;;;;;;5094621;28;20191;-80
2022/12/01 07:27:47;;;;;;;23.30;14.25;;;4.70;1.00;;;;;;5100720;27;20250;-80
2022/12/01 07:30:16;;;;;;;23.33;15.10;;;4.70;99.90;;;;;;5089373;28;20198;-80
2022/12/01 07:32:44;;;;;;;19.13;13.00;;;4.70;1.00;;;;;;5089208;28;20880;-81
2022/12/01 07:35:12;;;;;;;21.95;16.20;;;4.70;99.90;;;;;;5091720;28;20622;-81
2022/12/01 07:37:41;;;;;;;21.30;14.50;;;4.60;1.00;;;;;;5094379;28;20226;-80
2022/12/01 07:40:11;;;;;;;21.20;15.70;;;4.70;1.00;;;;;;5098442;28;20477;-81
2022/12/01 07:42:41;;;;;;;19.70;14.95;;;4.70;99.90;;;;;;5104141;28;20207;-80
2022/12/01 07:45:11;;;;;;;22.35;15.77;;;4.70;99.90;;;;;;5097882;28;20195;-81
2022/12/01 07:47:39;;;;;;;19.58;14.52;;;4.70;99.90;;;;;;5100954;28;20226;-80
2022/12/01 07:50:08;;;;;;;22.55;14.57;;;4.80;99.90;;;;;;5101949;28;20195;-80
2022/12/01 07:52:37;;;;;;;23.80;14.43;;;4.90;1.00;;;;;;5094600;28;20200;-79
2022/12/01 07:55:06;;;;;;;22.75;15.10;;;4.80;1.00;;;;;;5092722;28;20199;-80
2022/12/01 07:57:34;;;;;;;27.67;15.57;;;4.70;1.00;;;;;;5098148;28;20231;-80
2022/12/01 08:00:03;;;;;;;26.27;16.60;;;4.60;1.00;;;;;;5097672;28;20268;-80
2022/12/01 08:02:32;;;;;;;24.48;15.32;;;4.70;99.90;;;;;;5095760;28;20450;-81
2022/12/01 08:05:00;;;;;;;21.88;15.05;;;4.60;1.00;;;;;;5101278;28;20201;-79
2022/12/01 08:07:29;;;;;;;19.30;14.97;;;4.60;99.90;;;;;;5097201;28;20223;-81
2022/12/01 08:09:57;;;;;;;20.88;14.05;;;4.60;1.00;;;;;;5092369;28;20944;-78
2022/12/01 08:12:25;;;;;;;22.77;14.52;;;4.60;3.00;;;;;;5101641;28;20199;-80
2022/12/01 08:14:54;;;;;;;21.45;14.85;;;4.80;99.90;;;;;;5091784;28;20915;-81
2022/12/01 08:17:22;;;;;;;21.20;14.55;;;4.70;1.00;;;;;;5098586;28;20219;-81
2022/12/01 08:19:51;;;;;;;21.50;14.60;;;4.70;99.90;;;;;;5101048;28;20231;-80
2022/12/01 08:22:19;;;;;;;24.60;15.95;;;4.70;1.00;;;;;;5100151;28;20213;-80
2022/12/01 08:24:48;;;;;;;23.52;14.63;;;4.80;1.00;;;;;;5104060;28;20240;-80
2022/12/01 08:27:16;;;;;;;25.07;16.43;;;4.70;69.80;;;;;;5094970;28;20238;-81
2022/12/01 08:29:44;;;;;;;24.38;16.50;;;4.80;1.00;;;;;;5093834;28;20951;-80
2022/12/01 08:32:12;;;;;;;29.38;17.13;;;4.80;1.00;;;;;;5093015;28;20191;-79
2022/12/01 08:34:41;;;;;;;24.05;16.77;;;4.70;99.90;;;;;;5097872;28;20196;-80
2022/12/01 08:37:10;;;;;;;28.50;16.90;;;4.70;99.90;;;;;;5097045;28;20682;-80
2022/12/01 08:39:38;;;;;;;24.20;15.75;;;4.70;1.00;;;;;;5094978;28;20494;-80
2022/12/01 08:42:07;;;;;;;25.07;15.10;;;4.70;99.90;;;;;;5094966;28;20204;-80
2022/12/01 08:44:35;;;;;;;22.63;17.30;;;4.70;99.90;;;;;;5095359;27;20553;-80
2022/12/01 08:47:03;;;;;;;24.03;16.43;;;4.80;1.00;;;;;;5095914;27;20587;-79
2022/12/01 08:49:31;;;;;;;22.40;16.02;;;4.80;68.90;;;;;;5093713;28;20490;-80
2022/12/01 08:51:59;;;;;;;20.88;15.57;;;4.80;1.00;;;;;;5092708;28;20275;-80
2022/12/01 08:54:29;;;;;;;25.35;16.00;;;4.80;99.90;;;;;;5104448;28;20203;-80
2022/12/01 08:56:57;;;;;;;21.45;15.80;;;4.90;1.00;;;;;;5096928;28;20208;-80
2022/12/01 08:59:25;;;;;;;23.67;15.93;;;4.90;1.00;;;;;;5092745;28;20244;-80
2022/12/01 09:01:56;;;;;;;23.52;17.30;;;4.90;1.00;;;;;;5095427;28;20203;-79
2022/12/01 09:04:26;;;;;;;25.63;15.90;;;4.80;1.00;;;;;;5103076;28;20206;-79
2022/12/01 09:06:56;;;;;;;23.70;16.83;;;4.70;99.90;;;;;;5102147;28;20207;-79
2022/12/01 09:09:27;;;;;;;25.13;15.63;;;4.90;99.90;;;;;;5095474;28;20496;-79
2022/12/01 09:11:57;;;;;;;23.73;16.67;;;4.80;1.00;;;;;;5092297;28;20602;-79
2022/12/01 09:14:25;;;;;;;22.98;15.75;;;4.80;56.70;;;;;;5091300;28;20204;-81
2022/12/01 09:16:53;;;;;;;23.05;15.80;;;4.80;1.00;;;;;;5097789;28;20203;-79
2022/12/01 09:19:23;;;;;;;22.50;15.52;;;4.80;99.90;;;;;;5101338;28;20199;-81
2022/12/01 09:21:52;;;;;;;21.75;14.68;;;4.90;1.00;;;;;;5099303;28;20958;-78
2022/12/01 09:24:20;;;;;;;23.67;15.32;;;4.90;99.90;;;;;;5096668;28;20221;-80
2022/12/01 09:26:49;;;;;;;19.98;13.88;;;4.90;84.90;;;;;;5101740;28;20199;-80
2022/12/01 09:29:18;;;;;;;20.53;14.73;;;4.80;99.90;;;;;;5092989;28;20524;-79
2022/12/01 09:31:47;;;;;;;19.85;14.15;;;4.90;99.90;;;;;;5090457;28;20468;-79
2022/12/01 09:34:17;;;;;;;25.55;16.27;;;4.90;99.90;;;;;;5099839;28;20624;-79
2022/12/01 09:36:46;;;;;;;21.93;15.13;;;4.80;1.00;;;;;;5098543;28;20257;-79
2022/12/01 09:39:15;;;;;;;22.10;15.73;;;4.80;99.90;;;;;;5098027;28;20454;-79
2022/12/01 09:41:46;;;;;;;22.88;14.50;;;4.90;1.00;;;;;;5107178;27;20730;-79
2022/12/01 09:44:29;;;;;;;22.53;15.00;;;4.90;99.90;;;;;;5095885;28;20772;-80
2022/12/01 09:47:03;;;;;;;23.70;15.53;;;5.00;1.00;;;;;;5098585;28;20450;-79
2022/12/01 09:49:41;;;;;;;21.23;14.43;;;4.90;99.90;;;;;;5097758;28;20457;-79
2022/12/01 09:52:13;;;;;;;22.17;15.87;;;4.80;99.90;;;;;;5099848;28;20449;-80
2022/12/01 09:54:41;;;;;;;20.67;14.43;;;4.90;1.00;;;;;;5091958;28;21034;-80
2022/12/01 09:57:16;;;;;;;20.52;14.85;;;4.90;1.00;;;;;;5098336;28;20524;-79
2022/12/01 09:59:46;;;;;;;18.73;13.47;;;4.90;99.90;;;;;;5098508;28;20617;-79
2022/12/01 10:02:27;;;;;;;21.83;14.68;;;4.90;99.90;;;;;;5098765;28;20925;-78
2022/12/01 10:04:58;;;;;;;24.55;14.43;;;4.80;1.00;;;;;;5097801;28;20260;-80
2022/12/01 10:07:31;;;;;;;19.57;15.13;;;4.90;1.00;;;;;;5097441;28;20234;-79
2022/12/01 10:10:02;;;;;;;21.83;14.63;;;4.80;99.90;;;;;;5099611;28;20446;-79
2022/12/01 10:12:33;;;;;;;29.43;14.83;;;4.90;1.00;;;;;;5094701;28;20495;-79
2022/12/01 10:15:15;;;;;;;26.10;16.27;;;4.90;99.90;;;;;;5090754;28;20463;-79
2022/12/01 10:17:55;;;;;;;20.53;14.43;;;5.00;99.90;;;;;;5095190;28;20826;-78
2022/12/01 10:20:28;;;;;;;21.13;14.07;;;4.90;99.90;;;;;;5096020;28;20967;-79
2022/12/01 10:23:20;;;;;;;22.90;15.17;;;4.90;99.90;;;;;;5095156;28;20460;-80
2022/12/01 10:25:57;;;;;;;22.60;15.83;;;4.80;99.90;;;;;;5094749;28;20454;-78
2022/12/01 10:28:56;;;;;;;24.45;14.57;;;5.00;1.00;;;;;;5100243;28;21295;-80
2022/12/01 10:31:33;;;;;;;19.98;15.40;;;4.90;99.90;;;;;;5094868;28;20220;-79
2022/12/01 10:34:03;;;;;;;21.92;14.40;;;4.70;12.80;;;;;;5094850;28;20846;-79
2022/12/01 10:36:33;;;;;;;21.67;15.25;;;4.90;99.90;;;;;;5096582;28;20279;-80
2022/12/01 10:39:03;;;;;;;20.23;15.20;;;4.90;1.00;;;;;;5093914;28;20219;-79
2022/12/01 10:41:35;;;;;;;20.30;14.13;;;4.80;99.90;;;;;;5097677;28;20301;-80
2022/12/01 10:44:05;;;;;;;22.07;14.70;;;4.80;1.00;;;;;;5098080;28;20207;-80
2022/12/01 10:46:40;;;;;;;24.33;16.30;;;4.90;99.90;;;;;;5095407;28;20438;-80
2022/12/01 10:49:11;;;;;;;21.57;15.27;;;4.90;99.90;;;;;;5097305;28;20485;-79
2022/12/01 10:51:54;;;;;;;21.45;15.45;;;4.80;99.90;;;;;;5100385;28;20433;-78
2022/12/01 10:54:24;;;;;;;19.55;14.38;;;4.80;99.90;;;;;;5100989;28;20281;-80
2022/12/01 10:56:57;;;;;;;21.98;16.10;;;4.80;99.90;;;;;;5105357;28;20298;-80
2022/12/01 10:59:29;;;;;;;22.63;15.77;;;4.90;1.00;;;;;;5104441;28;20487;-80
2022/12/01 11:02:01;;;;;;;25.00;15.90;;;4.90;99.90;;;;;;5102416;28;20257;-80
2022/12/01 11:04:35;;;;;;;23.75;16.77;;;4.90;15.70;;;;;;5091619;28;20456;-79
2022/12/01 11:07:04;;;;;;;22.90;15.15;;;4.90;1.00;;;;;;5097562;28;20226;-79
2022/12/01 11:09:33;;;;;;;22.97;15.93;;;4.80;99.90;;;;;;5102313;28;20228;-79
2022/12/01 11:12:04;;;;;;;22.83;16.10;;;4.80;1.00;;;;;;5100018;28;20528;-78
2022/12/01 11:14:43;;;;;;;22.67;16.40;;;4.90;1.00;;;;;;5086569;28;20464;-80
2022/12/01 11:17:30;;;;;;;21.77;15.65;;;4.90;56.80;;;;;;5096503;27;20242;-80
2022/12/01 11:20:16;;;;;;;24.10;16.40;;;5.00;1.00;;;;;;5088677;28;20222;-81
2022/12/01 11:22:45;;;;;;;22.40;16.20;;;5.10;99.90;;;;;;5096850;28;20222;-80
2022/12/01 11:25:20;;;;;;;21.35;15.18;;;5.00;1.00;;;;;;5093510;28;20291;-80
2022/12/01 11:27:53;;;;;;;20.77;15.13;;;5.00;99.90;;;;;;5090699;28;20211;-80
2022/12/01 11:30:24;;;;;;;22.25;15.15;;;5.00;1.00;;;;;;5095828;28;20587;-81
2022/12/01 11:32:57;;;;;;;22.00;15.70;;;5.10;1.00;;;;;;5091112;27;20228;-81
2022/12/01 11:35:28;;;;;;;22.92;16.63;;;5.10;1.00;;;;;;5096458;28;20484;-80
2022/12/01 11:37:58;;;;;;;28.33;18.03;;;5.10;31.70;;;;;;5095726;28;20587;-81
2022/12/01 11:40:49;;;;;;;22.45;15.45;;;5.00;99.90;;;;;;5093539;28;20449;-81
2022/12/01 11:43:25;;;;;;;19.67;15.00;;;5.00;99.90;;;;;;5091204;28;20653;-80
2022/12/01 11:45:55;;;;;;;22.90;16.42;;;5.00;99.90;;;;;;5092318;28;20235;-81
2022/12/01 11:48:28;;;;;;;19.33;14.70;;;5.00;1.00;;;;;;5091988;28;20223;-81
2022/12/01 11:51:07;;;;;;;24.57;17.77;;;5.00;99.90;;;;;;5094886;28;20446;-80
2022/12/01 11:53:37;;;;;;;23.65;16.10;;;4.90;1.00;;;;;;5093295;28;20452;-79
2022/12/01 11:56:19;;;;;;;19.88;14.95;;;5.00;99.90;;;;;;5096062;28;20240;-81
2022/12/01 11:58:50;;;;;;;21.00;15.30;;;5.00;85.70;;;;;;5095486;28;20318;-81
2022/12/01 12:01:31;;;;;;;22.20;13.83;;;5.00;99.90;;;;;;5096298;28;20455;-81
2022/12/01 12:04:14;;;;;;;22.45;16.55;;;5.00;99.90;;;;;;5089069;28;20448;-82
2022/12/01 12:06:54;;;;;;;22.90;13.77;;;5.10;99.90;;;;;;5099429;28;20282;-79
2022/12/01 12:09:46;;;;;;;18.35;14.45;;;5.30;99.90;;;;;;5096301;28;20639;-79
2022/12/01 12:12:28;;;;;;;23.02;16.70;;;5.10;99.90;;;;;;5098886;28;20746;-81
2022/12/01 12:15:05;;;;;;;17.15;14.68;;;5.10;1.00;;;;;;5097117;28;20207;-81
2022/12/01 12:17:54;;;;;;;23.30;15.85;;;5.10;1.00;;;;;;5088546;28;20623;-77
2022/12/01 12:20:47;;;;;;;20.90;14.60;;;5.00;99.90;;;;;;5087425;28;20203;-77
2022/12/01 12:23:47;;;;;;;22.08;14.80;;;5.10;99.90;;;;;;5090754;28;20488;-78
2022/12/01 12:26:21;;;;;;;22.30;16.35;;;5.20;36.20;;;;;;5093114;28;20283;-81
2022/12/01 12:29:12;;;;;;;19.15;14.23;;;5.10;99.90;;;;;;5091726;28;20304;-78
2022/12/01 12:31:54;;;;;;;23.40;15.48;;;5.30;99.90;;;;;;5086401;28;20234;-80
2022/12/01 12:34:37;;;;;;;21.35;14.75;;;5.30;99.90;;;;;;5096975;28;20204;-80
2022/12/01 12:37:17;;;;;;;23.55;16.17;;;5.30;1.00;;;;;;5096285;28;20299;-80
2022/12/01 12:40:08;;;;;;;18.58;14.35;;;5.20;99.90;;;;;;5101462;28;20266;-79
2022/12/01 12:42:45;;;;;;;21.65;14.85;;;5.20;99.90;;;;;;5101294;28;20250;-82
2022/12/01 12:45:23;;;;;;;18.70;15.63;;;5.20;1.00;;;;;;5091833;28;20219;-79
2022/12/01 12:48:11;;;;;;;20.27;15.40;;;5.20;27.40;;;;;;5090324;28;20231;-80
2022/12/01 12:50:50;;;;;;;17.80;14.18;;;5.20;99.90;;;;;;5092764;28;20255;-79
2022/12/01 12:53:23;;;;;;;19.77;15.52;;;5.20;99.90;;;;;;5092585;28;20199;-79
2022/12/01 12:55:57;;;;;;;25.50;18.17;;;5.30;1.00;;;;;;5096869;28;20203;-80
2022/12/01 12:58:29;;;;;;;26.90;19.60;;;5.20;66.90;;;;;;5100876;28;20235;-81
2022/12/01 13:01:01;;;;;;;22.60;16.80;;;5.40;99.90;;;;;;5094604;28;20234;-80
2022/12/01 13:03:37;;;;;;;21.48;17.05;;;5.30;29.80;;;;;;5096221;28;21078;-79
2022/12/01 13:06:09;;;;;;;23.37;17.60;;;5.20;1.00;;;;;;5094151;28;20191;-79
2022/12/01 13:08:44;;;;;;;20.77;15.20;;;5.30;99.90;;;;;;5101800;27;20472;-79
2022/12/01 13:11:19;;;;;;;20.20;13.90;;;5.30;1.00;;;;;;5100235;28;20455;-81